Time;durP1;ratioP1;P1;durP2;ratioP2;P2;SDS_P1;SDS_P2;PMS_P1;PMS_P2;Temp;Humidity;BMP_temperature;BMP_pressure;BME280_temperature;BME280_humidity;BME280_pressure;Samples;Min_cycle;Max_cycle;Signal;HPM_P1;HPM_P2
2022/12/22 03:26:24;;;;;;;73.95;68.80;;;;;;;;;;10179929;28;20045;-72
2022/12/22 03:31:20;;;;;;;76.97;71.63;;;;;;;;;;10173748;28;20054;-73
2022/12/22 03:36:17;;;;;;;73.68;68.57;;;;;;;;;;10160381;28;20488;-72
2022/12/22 03:46:29;;;;;;;75.97;70.63;;;;;;;;;;10197966;28;20056;-73
2022/12/22 03:46:29;;;;;;;73.40;68.47;;;;;;;;;;10190976;28;20048;-71
2022/12/22 03:51:26;;;;;;;73.50;68.07;;;;;;;;;;10188852;28;20093;-72
2022/12/22 03:56:22;;;;;;;78.55;72.95;;;;;;;;;;10205258;28;20490;-71
2022/12/22 04:01:18;;;;;;;76.22;70.78;;;;;;;;;;10199854;28;20056;-71
2022/12/22 04:06:15;;;;;;;77.13;71.25;;;;;;;;;;10193014;28;20053;-71
2022/12/22 04:16:28;;;;;;;70.72;65.57;;;;;;;;;;10180896;28;20570;-72
2022/12/22 04:21:24;;;;;;;74.32;68.85;;;;;;;;;;10199726;28;20126;-70
2022/12/22 04:26:22;;;;;;;77.38;71.65;;;;;;;;;;10190888;28;20065;-72
2022/12/22 04:31:19;;;;;;;79.53;73.82;;;;;;;;;;10203197;28;20072;-72
2022/12/22 04:36:15;;;;;;;79.25;73.55;;;;;;;;;;10192975;28;20046;-71
2022/12/22 04:41:12;;;;;;;78.80;73.10;;;;;;;;;;10195278;28;20096;-71
2022/12/22 04:46:08;;;;;;;76.90;71.50;;;;;;;;;;10195036;28;20042;-71
2022/12/22 04:51:04;;;;;;;78.88;73.07;;;;;;;;;;10183545;28;20039;-71
2022/12/22 04:56:03;;;;;;;81.22;75.28;;;;;;;;;;10198886;28;20420;-71
2022/12/22 05:01:09;;;;;;;78.72;72.93;;;;;;;;;;10200578;28;20041;-71
2022/12/22 05:06:05;;;;;;;83.43;77.22;;;;;;;;;;10184508;28;20046;-71
2022/12/22 05:11:03;;;;;;;79.35;73.70;;;;;;;;;;10191335;28;20049;-73
2022/12/22 05:16:07;;;;;;;81.90;75.80;;;;;;;;;;10178579;28;20125;-74
2022/12/22 05:21:23;;;;;;;80.25;74.53;;;;;;;;;;10173223;28;20046;-74
2022/12/22 05:26:20;;;;;;;82.50;76.22;;;;;;;;;;10178310;28;20519;-73
2022/12/22 05:31:18;;;;;;;80.45;74.75;;;;;;;;;;10177025;28;20042;-70
2022/12/22 05:36:14;;;;;;;81.93;75.97;;;;;;;;;;10182872;28;20053;-71
2022/12/22 05:41:11;;;;;;;84.93;78.57;;;;;;;;;;10200220;28;20363;-71
2022/12/22 05:46:08;;;;;;;81.65;75.63;;;;;;;;;;10195234;28;20531;-72
2022/12/22 05:51:08;;;;;;;82.85;76.85;;;;;;;;;;10189382;28;20048;-71
2022/12/22 05:56:05;;;;;;;82.85;76.85;;;;;;;;;;10179214;28;20097;-72
2022/12/22 06:01:01;;;;;;;86.47;80.18;;;;;;;;;;10181546;28;20046;-73
2022/12/22 06:05:57;;;;;;;84.82;78.63;;;;;;;;;;10176126;28;20770;-73
2022/12/22 06:10:54;;;;;;;87.38;80.53;;;;;;;;;;10171893;28;20046;-72
2022/12/22 06:15:51;;;;;;;82.47;76.28;;;;;;;;;;10192777;28;20881;-72
2022/12/22 06:20:49;;;;;;;84.68;78.38;;;;;;;;;;10194075;28;20049;-72
2022/12/22 06:25:57;;;;;;;88.68;81.60;;;;;;;;;;10181100;28;20069;-72
2022/12/22 06:30:54;;;;;;;86.20;79.38;;;;;;;;;;10211335;28;20045;-72
2022/12/22 06:35:50;;;;;;;84.47;78.18;;;;;;;;;;10191655;28;20033;-72
2022/12/22 06:40:54;;;;;;;82.38;76.10;;;;;;;;;;10186714;28;20132;-72
2022/12/22 06:45:50;;;;;;;84.15;77.90;;;;;;;;;;10183714;28;20056;-71
2022/12/22 06:50:47;;;;;;;86.38;79.78;;;;;;;;;;10189627;28;20041;-71
2022/12/22 06:55:44;;;;;;;85.18;78.78;;;;;;;;;;10189801;28;20125;-71
2022/12/22 07:00:40;;;;;;;86.78;80.05;;;;;;;;;;10176123;28;20046;-71
2022/12/22 07:05:36;;;;;;;85.00;78.60;;;;;;;;;;10181052;28;20063;-71
2022/12/22 07:15:48;;;;;;;86.40;79.93;;;;;;;;;;10192646;28;20055;-72
2022/12/22 07:20:55;;;;;;;88.63;82.45;;;;;;;;;;10165643;28;20096;-71
2022/12/22 07:25:52;;;;;;;82.22;76.05;;;;;;;;;;10188837;28;20412;-70
2022/12/22 07:30:49;;;;;;;87.63;81.43;;;;;;;;;;10217035;28;20486;-70
2022/12/22 07:35:45;;;;;;;81.22;75.30;;;;;;;;;;10191923;28;20065;-70
2022/12/22 07:40:42;;;;;;;82.25;75.95;;;;;;;;;;10194432;28;20108;-71
2022/12/22 07:45:46;;;;;;;85.25;78.90;;;;;;;;;;10191995;28;20500;-70
2022/12/22 07:50:42;;;;;;;85.05;79.03;;;;;;;;;;10191063;28;20523;-70
2022/12/22 07:55:38;;;;;;;84.03;77.53;;;;;;;;;;10199776;28;20061;-70
2022/12/22 08:00:35;;;;;;;82.60;76.20;;;;;;;;;;10192730;28;20504;-70
2022/12/22 08:05:31;;;;;;;82.95;76.75;;;;;;;;;;10183433;28;20160;-70
2022/12/22 08:10:27;;;;;;;84.55;77.82;;;;;;;;;;10183461;28;20046;-70
2022/12/22 08:15:24;;;;;;;82.78;76.47;;;;;;;;;;10186782;28;20076;-70
2022/12/22 08:20:20;;;;;;;82.35;76.05;;;;;;;;;;10173323;28;20735;-70
2022/12/22 08:25:16;;;;;;;82.65;76.40;;;;;;;;;;10181328;28;20858;-70
2022/12/22 08:30:13;;;;;;;79.78;73.63;;;;;;;;;;10186385;28;20069;-71
2022/12/22 08:35:09;;;;;;;76.43;70.50;;;;;;;;;;10179071;28;20038;-70
2022/12/22 08:40:07;;;;;;;83.50;76.55;;;;;;;;;;10183791;28;20107;-71
2022/12/22 08:45:04;;;;;;;79.47;73.00;;;;;;;;;;10190098;28;20060;-72
2022/12/22 08:50:00;;;;;;;83.60;77.28;;;;;;;;;;10163120;28;21118;-71
2022/12/22 08:54:56;;;;;;;79.47;73.28;;;;;;;;;;10191347;28;20065;-71
2022/12/22 08:59:53;;;;;;;80.78;74.78;;;;;;;;;;10180818;28;20072;-71
2022/12/22 09:04:49;;;;;;;83.65;77.22;;;;;;;;;;10165597;28;20503;-71
2022/12/22 09:09:45;;;;;;;82.07;75.95;;;;;;;;;;10167901;28;20049;-71
2022/12/22 09:14:42;;;;;;;72.60;66.95;;;;;;;;;;10164876;28;20550;-70
2022/12/22 09:19:38;;;;;;;76.40;70.65;;;;;;;;;;10170593;28;20042;-71
2022/12/22 09:24:35;;;;;;;70.85;65.70;;;;;;;;;;10169342;28;20071;-70
2022/12/22 09:29:31;;;;;;;73.95;68.45;;;;;;;;;;10166995;28;20064;-70
2022/12/22 09:34:28;;;;;;;66.97;61.70;;;;;;;;;;10180649;28;20049;-70
2022/12/22 09:39:24;;;;;;;76.60;71.15;;;;;;;;;;10189450;28;20474;-71
2022/12/22 09:44:24;;;;;;;71.40;66.05;;;;;;;;;;10176339;28;20053;-70
2022/12/22 09:49:21;;;;;;;71.43;65.95;;;;;;;;;;10173579;28;21708;-70
2022/12/22 09:54:18;;;;;;;71.05;65.32;;;;;;;;;;10174960;28;20042;-71
2022/12/22 09:59:16;;;;;;;71.68;65.57;;;;;;;;;;10166527;28;20047;-71
2022/12/22 10:04:19;;;;;;;72.80;66.50;;;;;;;;;;10172419;28;20084;-70
2022/12/22 10:09:20;;;;;;;69.88;63.50;;;;;;;;;;10171826;28;20492;-71
2022/12/22 10:14:37;;;;;;;74.90;68.30;;;;;;;;;;10183011;28;20045;-71
2022/12/22 10:19:33;;;;;;;74.22;67.65;;;;;;;;;;10168404;28;20041;-69
2022/12/22 10:24:34;;;;;;;72.90;66.97;;;;;;;;;;10184867;28;20400;-69
2022/12/22 10:29:31;;;;;;;74.95;68.75;;;;;;;;;;10176098;28;20428;-70
2022/12/22 10:34:27;;;;;;;76.60;70.40;;;;;;;;;;10175566;28;20488;-70
2022/12/22 10:39:25;;;;;;;75.05;68.82;;;;;;;;;;10182367;28;20052;-70
2022/12/22 10:44:25;;;;;;;76.63;70.32;;;;;;;;;;10178253;28;20049;-71
2022/12/22 10:49:21;;;;;;;77.63;71.38;;;;;;;;;;10178544;28;20069;-71
2022/12/22 10:54:30;;;;;;;77.57;71.38;;;;;;;;;;10183641;28;20049;-71
2022/12/22 10:59:27;;;;;;;81.45;75.15;;;;;;;;;;10175936;28;20128;-71
2022/12/22 11:04:24;;;;;;;76.30;70.30;;;;;;;;;;10166336;28;20045;-71
2022/12/22 11:09:21;;;;;;;79.75;73.22;;;;;;;;;;10171859;28;20129;-71
2022/12/22 11:14:48;;;;;;;84.28;77.97;;;;;;;;;;10178130;28;20053;-71
2022/12/22 11:19:55;;;;;;;72.28;67.07;;;;;;;;;;10185175;28;20361;-71
2022/12/22 11:24:54;;;;;;;54.40;50.20;;;;;;;;;;10188728;28;20042;-71
2022/12/22 11:30:02;;;;;;;50.13;46.20;;;;;;;;;;10187579;28;20053;-71
2022/12/22 11:35:21;;;;;;;54.25;49.95;;;;;;;;;;10167948;28;20052;-71
2022/12/22 11:40:30;;;;;;;49.55;45.65;;;;;;;;;;10177858;28;20507;-71
2022/12/22 11:45:35;;;;;;;54.20;50.03;;;;;;;;;;10177889;28;20169;-71
2022/12/22 11:50:46;;;;;;;58.58;54.28;;;;;;;;;;10176858;28;20050;-71
2022/12/22 11:56:03;;;;;;;54.45;49.95;;;;;;;;;;10181618;28;20056;-71
2022/12/22 12:01:06;;;;;;;40.45;36.95;;;;;;;;;;10178282;28;20045;-71
2022/12/22 12:06:26;;;;;;;34.72;31.60;;;;;;;;;;10193329;28;20103;-71
2022/12/22 12:11:38;;;;;;;31.08;28.23;;;;;;;;;;10197017;28;20046;-71
2022/12/22 12:16:43;;;;;;;28.08;25.42;;;;;;;;;;10207308;28;20073;-71
2022/12/22 12:21:53;;;;;;;31.65;28.38;;;;;;;;;;10202833;28;20053;-71
2022/12/22 12:26:52;;;;;;;25.85;23.55;;;;;;;;;;10196940;28;20044;-71
2022/12/22 12:31:52;;;;;;;25.20;23.00;;;;;;;;;;10202760;28;20047;-71
2022/12/22 12:36:51;;;;;;;21.75;19.50;;;;;;;;;;10200588;28;20042;-71
2022/12/22 12:41:58;;;;;;;23.40;20.35;;;;;;;;;;10191080;28;20050;-70
2022/12/22 12:46:58;;;;;;;25.13;22.73;;;;;;;;;;10190093;28;20050;-71
2022/12/22 12:51:54;;;;;;;25.75;23.13;;;;;;;;;;10211275;28;20120;-71
2022/12/22 12:57:06;;;;;;;26.38;24.13;;;;;;;;;;10194596;28;20117;-71
2022/12/22 13:02:02;;;;;;;27.10;24.45;;;;;;;;;;10195478;28;20072;-71
2022/12/22 13:06:59;;;;;;;26.13;23.75;;;;;;;;;;10188032;28;20049;-71
2022/12/22 13:11:55;;;;;;;24.05;21.88;;;;;;;;;;10190551;28;20072;-71
2022/12/22 13:17:45;;;;;;;22.42;19.88;;;;;;;;;;10191160;28;20133;-71
2022/12/22 13:22:42;;;;;;;18.13;15.85;;;;;;;;;;10116480;28;20057;-71
2022/12/22 13:27:38;;;;;;;19.17;15.82;;;;;;;;;;10201948;28;20449;-71
2022/12/22 13:32:35;;;;;;;19.35;17.48;;;;;;;;;;10200875;28;20149;-71
2022/12/22 13:37:37;;;;;;;22.35;20.00;;;;;;;;;;10194074;28;20525;-71
2022/12/22 13:42:35;;;;;;;20.45;18.35;;;;;;;;;;10195757;28;20077;-70
2022/12/22 13:47:32;;;;;;;21.20;19.10;;;;;;;;;;10182585;28;20157;-71
2022/12/22 13:52:28;;;;;;;19.85;17.95;;;;;;;;;;10192672;28;20484;-70
2022/12/22 13:57:25;;;;;;;21.42;19.52;;;;;;;;;;10196598;28;20052;-71
2022/12/22 14:02:21;;;;;;;22.58;20.27;;;;;;;;;;10194248;28;20047;-71
2022/12/22 14:07:18;;;;;;;24.15;21.73;;;;;;;;;;10189004;28;20045;-72
2022/12/22 14:12:19;;;;;;;23.27;20.65;;;;;;;;;;10178605;28;20484;-72
2022/12/22 14:17:23;;;;;;;22.48;20.10;;;;;;;;;;10179782;28;20042;-72
2022/12/22 14:22:22;;;;;;;23.67;21.20;;;;;;;;;;10188522;28;20096;-72
2022/12/22 14:27:37;;;;;;;24.95;22.70;;;;;;;;;;10184604;28;20133;-72
2022/12/22 14:32:42;;;;;;;24.90;22.23;;;;;;;;;;10180170;28;20041;-72
2022/12/22 14:37:48;;;;;;;25.85;23.45;;;;;;;;;;10197316;28;20453;-72
2022/12/22 14:42:44;;;;;;;28.40;25.42;;;;;;;;;;10190975;28;20513;-72
2022/12/22 14:47:40;;;;;;;28.20;25.52;;;;;;;;;;10189441;28;20045;-72
2022/12/22 14:52:44;;;;;;;29.23;26.52;;;;;;;;;;10190274;28;20053;-72
2022/12/22 14:57:41;;;;;;;32.83;29.65;;;;;;;;;;10195182;28;20110;-72
2022/12/22 15:02:38;;;;;;;33.97;30.77;;;;;;;;;;10201255;28;20068;-71
2022/12/22 15:07:43;;;;;;;35.58;32.47;;;;;;;;;;10200717;28;20392;-72
2022/12/22 15:13:03;;;;;;;36.03;32.78;;;;;;;;;;10195890;28;20049;-73
2022/12/22 15:18:00;;;;;;;39.75;36.10;;;;;;;;;;10201597;28;20141;-72
2022/12/22 15:22:56;;;;;;;41.03;37.33;;;;;;;;;;10209835;28;20041;-72
2022/12/22 15:27:52;;;;;;;42.58;38.88;;;;;;;;;;10190917;28;20050;-72
2022/12/22 15:32:49;;;;;;;44.10;40.33;;;;;;;;;;10196829;28;20045;-72
2022/12/22 15:37:45;;;;;;;45.72;41.83;;;;;;;;;;10199057;28;20120;-72
2022/12/22 15:42:41;;;;;;;46.00;42.25;;;;;;;;;;10194963;28;20065;-72
2022/12/22 15:47:39;;;;;;;45.05;41.38;;;;;;;;;;10207231;28;20053;-72
2022/12/22 15:52:35;;;;;;;44.80;41.00;;;;;;;;;;10188322;28;20099;-72
2022/12/22 15:57:32;;;;;;;43.75;39.92;;;;;;;;;;10186673;28;20046;-72
2022/12/22 16:02:28;;;;;;;45.00;41.10;;;;;;;;;;10184758;28;20519;-71
2022/12/22 16:07:25;;;;;;;45.50;41.70;;;;;;;;;;10187070;28;20048;-71
2022/12/22 16:12:21;;;;;;;46.40;42.50;;;;;;;;;;10203468;28;20050;-70
2022/12/22 16:17:18;;;;;;;45.65;41.92;;;;;;;;;;10200738;28;20686;-70
2022/12/22 16:22:19;;;;;;;45.13;41.30;;;;;;;;;;10207541;28;20389;-71
2022/12/22 16:27:15;;;;;;;51.58;46.55;;;;;;;;;;10207746;28;20045;-71
2022/12/22 16:32:16;;;;;;;49.20;44.80;;;;;;;;;;10188042;28;20558;-71
2022/12/22 16:37:13;;;;;;;50.03;45.83;;;;;;;;;;10193184;28;20046;-72
2022/12/22 16:42:11;;;;;;;47.22;43.22;;;;;;;;;;10191622;28;20554;-71
2022/12/22 16:47:25;;;;;;;46.30;41.38;;;;;;;;;;10202827;28;20042;-71
2022/12/22 16:52:25;;;;;;;40.47;37.15;;;;;;;;;;10209235;28;20639;-71
2022/12/22 16:57:21;;;;;;;41.63;38.15;;;;;;;;;;10201786;28;20057;-71
2022/12/22 17:02:25;;;;;;;40.25;36.75;;;;;;;;;;10194734;28;20081;-70
2022/12/22 17:07:22;;;;;;;41.30;37.22;;;;;;;;;;10199478;28;20763;-70
2022/12/22 17:12:24;;;;;;;38.47;35.15;;;;;;;;;;10198108;28;20058;-71
2022/12/22 17:17:22;;;;;;;33.40;30.80;;;;;;;;;;10195573;28;20080;-70
2022/12/22 17:22:28;;;;;;;34.67;31.92;;;;;;;;;;10196697;28;20042;-70
2022/12/22 17:27:27;;;;;;;37.17;33.60;;;;;;;;;;10187432;28;20511;-71
2022/12/22 17:32:23;;;;;;;36.72;33.45;;;;;;;;;;10201787;28;20073;-71
2022/12/22 17:37:21;;;;;;;38.65;34.97;;;;;;;;;;10202762;28;20125;-70
2022/12/22 17:42:18;;;;;;;37.85;34.60;;;;;;;;;;10206731;28;20060;-70
2022/12/22 17:47:15;;;;;;;37.65;34.15;;;;;;;;;;10196182;28;20045;-70
2022/12/22 17:52:17;;;;;;;36.50;33.45;;;;;;;;;;10174399;28;20065;-70
2022/12/22 17:57:16;;;;;;;38.45;34.97;;;;;;;;;;10193679;28;20053;-70
2022/12/22 18:02:15;;;;;;;37.65;33.92;;;;;;;;;;10179869;28;20069;-71
2022/12/22 18:07:12;;;;;;;37.78;33.83;;;;;;;;;;10188009;28;20065;-70
2022/12/22 18:12:23;;;;;;;40.70;37.08;;;;;;;;;;10196978;28;20046;-70
2022/12/22 18:17:21;;;;;;;40.75;36.78;;;;;;;;;;10188177;28;20104;-70
2022/12/22 18:22:19;;;;;;;40.55;37.05;;;;;;;;;;10189420;28;20564;-70
2022/12/22 18:27:15;;;;;;;48.00;42.97;;;;;;;;;;10168905;28;20045;-70
2022/12/22 18:32:11;;;;;;;42.67;39.22;;;;;;;;;;10187459;28;20124;-70
2022/12/22 18:37:16;;;;;;;46.70;42.17;;;;;;;;;;10187064;28;20045;-70
2022/12/22 18:42:17;;;;;;;45.58;42.08;;;;;;;;;;10187945;28;20038;-70
2022/12/22 18:47:14;;;;;;;48.83;44.58;;;;;;;;;;10189590;28;20101;-70
2022/12/22 18:52:17;;;;;;;50.78;46.67;;;;;;;;;;10185929;28;20121;-70
2022/12/22 18:57:15;;;;;;;48.70;44.30;;;;;;;;;;10188321;28;20049;-70
2022/12/22 19:02:22;;;;;;;50.33;46.22;;;;;;;;;;10187328;28;20043;-70
2022/12/22 19:07:20;;;;;;;52.55;47.67;;;;;;;;;;10177576;28;20042;-71
2022/12/22 19:12:18;;;;;;;49.88;45.97;;;;;;;;;;10203769;28;20470;-70
2022/12/22 19:17:22;;;;;;;52.28;47.28;;;;;;;;;;10204870;28;20073;-70
2022/12/22 19:22:19;;;;;;;49.90;45.47;;;;;;;;;;10184965;28;20042;-70
2022/12/22 19:27:18;;;;;;;50.78;46.30;;;;;;;;;;10185011;28;20038;-71
2022/12/22 19:32:22;;;;;;;49.38;45.03;;;;;;;;;;10187235;28;20548;-70
2022/12/22 19:37:19;;;;;;;48.90;44.85;;;;;;;;;;10192223;28;20076;-70
2022/12/22 19:42:19;;;;;;;47.65;43.40;;;;;;;;;;10176080;28;20503;-71
2022/12/22 19:47:20;;;;;;;47.60;42.78;;;;;;;;;;10190584;28;20048;-70
2022/12/22 19:52:16;;;;;;;47.30;43.22;;;;;;;;;;10183006;28;20057;-70
2022/12/22 19:57:15;;;;;;;45.35;41.08;;;;;;;;;;10178565;28;20547;-70
2022/12/22 20:02:26;;;;;;;42.83;38.78;;;;;;;;;;10185697;28;20054;-70
2022/12/22 20:07:23;;;;;;;39.17;35.70;;;;;;;;;;10202116;28;20070;-70
2022/12/22 20:12:23;;;;;;;42.47;38.42;;;;;;;;;;10207072;28;20038;-70
2022/12/22 20:17:19;;;;;;;43.00;39.20;;;;;;;;;;10178782;28;20070;-69
2022/12/22 20:22:16;;;;;;;43.75;39.30;;;;;;;;;;10187679;28;20428;-69
2022/12/22 20:27:25;;;;;;;40.38;36.58;;;;;;;;;;10168711;28;20133;-70
2022/12/22 20:32:22;;;;;;;43.88;40.20;;;;;;;;;;10179617;28;20496;-74
2022/12/22 20:37:24;;;;;;;45.40;40.40;;;;;;;;;;10189810;28;20040;-73
2022/12/22 20:42:22;;;;;;;45.67;41.63;;;;;;;;;;10180679;28;20061;-73
2022/12/22 20:47:18;;;;;;;47.72;43.38;;;;;;;;;;10189880;28;20045;-74
2022/12/22 20:52:18;;;;;;;46.50;42.22;;;;;;;;;;10191139;28;20042;-74
2022/12/22 20:57:14;;;;;;;47.22;42.55;;;;;;;;;;10186597;28;20077;-74
2022/12/22 21:02:29;;;;;;;44.78;41.05;;;;;;;;;;10195879;28;20066;-71
2022/12/22 21:07:26;;;;;;;47.47;42.97;;;;;;;;;;10201490;28;20052;-75
2022/12/22 21:12:22;;;;;;;47.13;43.03;;;;;;;;;;10194887;28;20488;-75
2022/12/22 21:17:18;;;;;;;46.65;42.53;;;;;;;;;;10196679;28;20416;-73
2022/12/22 21:22:15;;;;;;;48.63;44.25;;;;;;;;;;10198166;28;20124;-73
2022/12/22 21:27:15;;;;;;;51.03;45.75;;;;;;;;;;10196984;28;20038;-73
2022/12/22 21:32:12;;;;;;;48.47;44.28;;;;;;;;;;10201808;28;20038;-71
2022/12/22 21:37:13;;;;;;;48.13;43.78;;;;;;;;;;10199936;28;20065;-71
2022/12/22 21:42:13;;;;;;;45.15;40.95;;;;;;;;;;10193023;28;20136;-73
2022/12/22 21:47:13;;;;;;;48.75;44.45;;;;;;;;;;10193042;28;20045;-73
2022/12/22 21:52:10;;;;;;;47.25;43.08;;;;;;;;;;10198612;28;20052;-72
2022/12/22 21:57:09;;;;;;;46.72;41.67;;;;;;;;;;10196528;28;20072;-72
2022/12/22 22:02:13;;;;;;;48.42;43.55;;;;;;;;;;10201384;28;20069;-72
2022/12/22 22:07:09;;;;;;;47.25;42.92;;;;;;;;;;10201595;28;20046;-73
2022/12/22 22:17:23;;;;;;;45.88;41.58;;;;;;;;;;10192071;28;20053;-69
2022/12/22 22:22:20;;;;;;;48.83;43.88;;;;;;;;;;10193338;28;20691;-70
2022/12/22 22:27:16;;;;;;;52.63;47.83;;;;;;;;;;10187632;28;20471;-70
2022/12/22 22:32:12;;;;;;;50.00;45.70;;;;;;;;;;10192473;28;20046;-70
2022/12/22 22:37:08;;;;;;;48.35;44.05;;;;;;;;;;10188836;28;20133;-71
2022/12/22 22:42:05;;;;;;;50.22;45.50;;;;;;;;;;10205223;28;20053;-70
2022/12/22 22:47:01;;;;;;;47.97;43.30;;;;;;;;;;10199514;28;20050;-73
2022/12/22 22:51:57;;;;;;;49.58;45.25;;;;;;;;;;10196131;28;20046;-69
2022/12/22 22:56:53;;;;;;;46.92;42.75;;;;;;;;;;10197447;28;20048;-73
2022/12/22 23:01:52;;;;;;;47.95;43.67;;;;;;;;;;10188671;28;20525;-72
2022/12/22 23:06:48;;;;;;;52.25;47.70;;;;;;;;;;10196408;28;20051;-72
2022/12/22 23:11:45;;;;;;;53.63;48.60;;;;;;;;;;10194609;28;20041;-70
2022/12/22 23:16:41;;;;;;;50.30;45.65;;;;;;;;;;10186894;28;20045;-70
2022/12/22 23:21:37;;;;;;;53.97;49.38;;;;;;;;;;10193300;28;20381;-70
2022/12/22 23:26:33;;;;;;;54.90;49.88;;;;;;;;;;10186623;28;20514;-71
2022/12/22 23:31:31;;;;;;;53.60;48.80;;;;;;;;;;10188785;28;20053;-72
2022/12/22 23:36:27;;;;;;;54.67;49.55;;;;;;;;;;10194338;28;20053;-72
2022/12/22 23:41:24;;;;;;;56.70;51.67;;;;;;;;;;10193310;28;20038;-70
2022/12/22 23:46:20;;;;;;;54.60;49.95;;;;;;;;;;10186151;28;20128;-70
2022/12/22 23:51:17;;;;;;;55.60;50.83;;;;;;;;;;10198110;28;20385;-72
2022/12/22 23:56:14;;;;;;;55.85;51.25;;;;;;;;;;10188021;28;20107;-71
